sensor_id;sensor_type;location;lat;lon;timestamp;P1;durP1;ratioP1;P2;durP2;ratioP2
5052;SDS011;2545;50.892;5.740;2024-02-21T00:02:10;37.40;;;13.23;;
5052;SDS011;2545;50.892;5.740;2024-02-21T00:04:35;34.27;;;11.83;;
5052;SDS011;2545;50.892;5.740;2024-02-21T00:07:01;20.03;;;9.53;;
5052;SDS011;2545;50.892;5.740;2024-02-21T00:09:29;26.93;;;10.63;;
5052;SDS011;2545;50.892;5.740;2024-02-21T00:11:54;29.93;;;11.30;;
5052;SDS011;2545;50.892;5.740;2024-02-21T00:14:19;25.80;;;11.10;;
5052;SDS011;2545;50.892;5.740;2024-02-21T00:16:45;20.67;;;10.37;;
5052;SDS011;2545;50.892;5.740;2024-02-21T00:19:10;26.07;;;10.63;;
5052;SDS011;2545;50.892;5.740;2024-02-21T00:21:36;31.17;;;11.17;;
5052;SDS011;2545;50.892;5.740;2024-02-21T00:24:01;26.20;;;11.43;;
5052;SDS011;2545;50.892;5.740;2024-02-21T00:26:26;31.60;;;12.20;;
5052;SDS011;2545;50.892;5.740;2024-02-21T00:28:52;30.00;;;11.80;;
5052;SDS011;2545;50.892;5.740;2024-02-21T00:31:18;27.87;;;13.33;;
5052;SDS011;2545;50.892;5.740;2024-02-21T00:33:43;36.27;;;12.23;;
5052;SDS011;2545;50.892;5.740;2024-02-21T00:36:08;25.53;;;12.83;;
5052;SDS011;2545;50.892;5.740;2024-02-21T00:38:34;25.03;;;11.10;;
5052;SDS011;2545;50.892;5.740;2024-02-21T00:40:59;32.03;;;12.37;;
5052;SDS011;2545;50.892;5.740;2024-02-21T00:43:24;42.80;;;12.70;;
5052;SDS011;2545;50.892;5.740;2024-02-21T00:45:50;20.90;;;11.10;;
5052;SDS011;2545;50.892;5.740;2024-02-21T00:48:15;26.67;;;12.90;;
5052;SDS011;2545;50.892;5.740;2024-02-21T00:50:41;28.00;;;12.47;;
5052;SDS011;2545;50.892;5.740;2024-02-21T00:53:06;31.57;;;13.70;;
5052;SDS011;2545;50.892;5.740;2024-02-21T00:55:31;33.63;;;12.83;;
5052;SDS011;2545;50.892;5.740;2024-02-21T00:57:57;18.90;;;10.93;;
5052;SDS011;2545;50.892;5.740;2024-02-21T01:00:22;18.10;;;10.30;;
5052;SDS011;2545;50.892;5.740;2024-02-21T01:02:48;25.13;;;10.80;;
5052;SDS011;2545;50.892;5.740;2024-02-21T01:05:13;35.13;;;11.27;;
5052;SDS011;2545;50.892;5.740;2024-02-21T01:07:38;23.90;;;10.00;;
5052;SDS011;2545;50.892;5.740;2024-02-21T01:10:04;27.93;;;9.67;;
5052;SDS011;2545;50.892;5.740;2024-02-21T01:12:30;24.63;;;10.80;;
5052;SDS011;2545;50.892;5.740;2024-02-21T01:14:55;26.63;;;11.10;;
5052;SDS011;2545;50.892;5.740;2024-02-21T01:17:20;38.90;;;11.43;;
5052;SDS011;2545;50.892;5.740;2024-02-21T01:19:46;24.00;;;10.80;;
5052;SDS011;2545;50.892;5.740;2024-02-21T01:22:11;22.37;;;9.70;;
5052;SDS011;2545;50.892;5.740;2024-02-21T01:24:36;24.37;;;11.20;;
5052;SDS011;2545;50.892;5.740;2024-02-21T01:27:02;22.47;;;11.53;;
5052;SDS011;2545;50.892;5.740;2024-02-21T01:29:27;25.93;;;11.03;;
5052;SDS011;2545;50.892;5.740;2024-02-21T01:31:53;25.80;;;10.40;;
5052;SDS011;2545;50.892;5.740;2024-02-21T01:34:18;24.43;;;11.97;;
5052;SDS011;2545;50.892;5.740;2024-02-21T01:36:43;20.60;;;9.87;;
5052;SDS011;2545;50.892;5.740;2024-02-21T01:39:09;27.70;;;11.47;;
5052;SDS011;2545;50.892;5.740;2024-02-21T01:41:34;24.70;;;12.10;;
5052;SDS011;2545;50.892;5.740;2024-02-21T01:43:59;32.40;;;11.30;;
5052;SDS011;2545;50.892;5.740;2024-02-21T01:46:26;27.73;;;10.40;;
5052;SDS011;2545;50.892;5.740;2024-02-21T01:48:54;24.57;;;11.13;;
5052;SDS011;2545;50.892;5.740;2024-02-21T01:51:22;28.43;;;11.30;;
5052;SDS011;2545;50.892;5.740;2024-02-21T01:53:48;22.40;;;9.90;;
5052;SDS011;2545;50.892;5.740;2024-02-21T01:56:15;28.57;;;11.73;;
5052;SDS011;2545;50.892;5.740;2024-02-21T01:58:41;25.63;;;11.90;;
5052;SDS011;2545;50.892;5.740;2024-02-21T02:01:07;28.10;;;12.30;;
5052;SDS011;2545;50.892;5.740;2024-02-21T02:03:33;23.03;;;10.57;;
5052;SDS011;2545;50.892;5.740;2024-02-21T02:05:58;31.17;;;12.23;;
5052;SDS011;2545;50.892;5.740;2024-02-21T02:08:24;31.73;;;11.37;;
5052;SDS011;2545;50.892;5.740;2024-02-21T02:10:51;25.40;;;10.60;;
5052;SDS011;2545;50.892;5.740;2024-02-21T02:13:17;17.03;;;10.50;;
5052;SDS011;2545;50.892;5.740;2024-02-21T02:15:43;22.83;;;8.90;;
5052;SDS011;2545;50.892;5.740;2024-02-21T02:18:10;24.13;;;10.10;;
5052;SDS011;2545;50.892;5.740;2024-02-21T02:20:36;30.70;;;9.20;;
5052;SDS011;2545;50.892;5.740;2024-02-21T02:23:10;30.83;;;10.50;;
5052;SDS011;2545;50.892;5.740;2024-02-21T02:25:45;26.20;;;11.17;;
5052;SDS011;2545;50.892;5.740;2024-02-21T02:28:14;31.20;;;10.17;;
5052;SDS011;2545;50.892;5.740;2024-02-21T02:30:40;28.83;;;8.73;;
5052;SDS011;2545;50.892;5.740;2024-02-21T02:33:06;20.97;;;8.83;;
5052;SDS011;2545;50.892;5.740;2024-02-21T02:35:31;18.33;;;8.27;;
5052;SDS011;2545;50.892;5.740;2024-02-21T02:37:57;26.57;;;9.30;;
5052;SDS011;2545;50.892;5.740;2024-02-21T02:40:23;18.83;;;8.57;;
5052;SDS011;2545;50.892;5.740;2024-02-21T02:42:48;23.13;;;9.13;;
5052;SDS011;2545;50.892;5.740;2024-02-21T02:45:17;27.27;;;10.93;;
5052;SDS011;2545;50.892;5.740;2024-02-21T02:47:46;21.73;;;9.27;;
5052;SDS011;2545;50.892;5.740;2024-02-21T02:50:12;29.87;;;11.03;;
5052;SDS011;2545;50.892;5.740;2024-02-21T02:52:37;17.83;;;9.07;;
5052;SDS011;2545;50.892;5.740;2024-02-21T02:55:03;25.87;;;10.10;;
5052;SDS011;2545;50.892;5.740;2024-02-21T02:57:30;16.30;;;8.60;;
5052;SDS011;2545;50.892;5.740;2024-02-21T02:59:55;15.60;;;7.60;;
5052;SDS011;2545;50.892;5.740;2024-02-21T03:02:20;19.20;;;8.70;;
5052;SDS011;2545;50.892;5.740;2024-02-21T03:04:45;17.93;;;9.17;;
5052;SDS011;2545;50.892;5.740;2024-02-21T03:07:11;20.40;;;9.03;;
5052;SDS011;2545;50.892;5.740;2024-02-21T03:09:37;20.53;;;8.17;;
5052;SDS011;2545;50.892;5.740;2024-02-21T03:12:03;19.20;;;8.10;;
5052;SDS011;2545;50.892;5.740;2024-02-21T03:14:29;24.37;;;9.07;;
5052;SDS011;2545;50.892;5.740;2024-02-21T03:16:55;22.57;;;9.03;;
5052;SDS011;2545;50.892;5.740;2024-02-21T03:19:20;27.57;;;8.80;;
5052;SDS011;2545;50.892;5.740;2024-02-21T03:21:46;31.73;;;9.00;;
5052;SDS011;2545;50.892;5.740;2024-02-21T03:24:11;19.33;;;8.70;;
5052;SDS011;2545;50.892;5.740;2024-02-21T03:26:36;22.80;;;10.17;;
5052;SDS011;2545;50.892;5.740;2024-02-21T03:29:02;17.97;;;9.47;;
5052;SDS011;2545;50.892;5.740;2024-02-21T03:31:28;24.40;;;8.60;;
5052;SDS011;2545;50.892;5.740;2024-02-21T03:33:53;24.73;;;9.70;;
5052;SDS011;2545;50.892;5.740;2024-02-21T03:36:19;28.80;;;10.00;;
5052;SDS011;2545;50.892;5.740;2024-02-21T03:38:44;27.93;;;10.80;;
5052;SDS011;2545;50.892;5.740;2024-02-21T03:41:10;21.30;;;10.50;;
5052;SDS011;2545;50.892;5.740;2024-02-21T03:43:37;22.10;;;9.40;;
5052;SDS011;2545;50.892;5.740;2024-02-21T03:46:03;23.73;;;8.90;;
5052;SDS011;2545;50.892;5.740;2024-02-21T03:48:30;15.00;;;8.30;;
5052;SDS011;2545;50.892;5.740;2024-02-21T03:50:56;20.90;;;9.63;;
5052;SDS011;2545;50.892;5.740;2024-02-21T03:53:22;16.33;;;7.73;;
5052;SDS011;2545;50.892;5.740;2024-02-21T03:55:47;21.07;;;8.50;;
5052;SDS011;2545;50.892;5.740;2024-02-21T03:58:12;25.50;;;7.93;;
5052;SDS011;2545;50.892;5.740;2024-02-21T04:00:38;23.93;;;8.87;;
5052;SDS011;2545;50.892;5.740;2024-02-21T04:03:04;27.40;;;10.47;;
5052;SDS011;2545;50.892;5.740;2024-02-21T04:05:29;21.40;;;9.20;;
5052;SDS011;2545;50.892;5.740;2024-02-21T04:07:54;17.50;;;8.33;;
5052;SDS011;2545;50.892;5.740;2024-02-21T04:10:20;18.60;;;8.50;;
5052;SDS011;2545;50.892;5.740;2024-02-21T04:12:45;13.43;;;8.20;;
5052;SDS011;2545;50.892;5.740;2024-02-21T04:15:10;19.93;;;9.40;;
5052;SDS011;2545;50.892;5.740;2024-02-21T04:17:36;24.90;;;9.10;;
5052;SDS011;2545;50.892;5.740;2024-02-21T04:20:04;16.83;;;8.80;;
5052;SDS011;2545;50.892;5.740;2024-02-21T04:22:32;23.90;;;8.40;;
5052;SDS011;2545;50.892;5.740;2024-02-21T04:25:01;21.40;;;7.90;;
5052;SDS011;2545;50.892;5.740;2024-02-21T04:27:27;17.40;;;7.40;;
5052;SDS011;2545;50.892;5.740;2024-02-21T04:29:52;15.03;;;6.70;;
5052;SDS011;2545;50.892;5.740;2024-02-21T04:32:18;21.70;;;7.37;;
5052;SDS011;2545;50.892;5.740;2024-02-21T04:34:43;24.80;;;7.70;;
5052;SDS011;2545;50.892;5.740;2024-02-21T04:37:09;21.83;;;8.57;;
5052;SDS011;2545;50.892;5.740;2024-02-21T04:39:35;21.37;;;8.13;;
5052;SDS011;2545;50.892;5.740;2024-02-21T04:42:01;18.50;;;7.67;;
5052;SDS011;2545;50.892;5.740;2024-02-21T04:44:27;22.13;;;8.33;;
5052;SDS011;2545;50.892;5.740;2024-02-21T04:46:52;23.60;;;8.63;;
5052;SDS011;2545;50.892;5.740;2024-02-21T04:49:19;17.43;;;6.93;;
5052;SDS011;2545;50.892;5.740;2024-02-21T04:51:45;20.33;;;7.53;;
5052;SDS011;2545;50.892;5.740;2024-02-21T04:54:10;14.20;;;7.90;;
5052;SDS011;2545;50.892;5.740;2024-02-21T04:56:35;15.47;;;6.80;;
5052;SDS011;2545;50.892;5.740;2024-02-21T04:59:01;21.67;;;8.47;;
5052;SDS011;2545;50.892;5.740;2024-02-21T05:01:26;18.00;;;8.90;;
5052;SDS011;2545;50.892;5.740;2024-02-21T05:03:53;19.77;;;7.90;;
5052;SDS011;2545;50.892;5.740;2024-02-21T05:06:18;33.87;;;9.17;;
5052;SDS011;2545;50.892;5.740;2024-02-21T05:08:44;12.17;;;6.63;;
5052;SDS011;2545;50.892;5.740;2024-02-21T05:11:10;21.03;;;8.17;;
5052;SDS011;2545;50.892;5.740;2024-02-21T05:13:35;11.73;;;7.30;;
5052;SDS011;2545;50.892;5.740;2024-02-21T05:16:02;17.90;;;8.60;;
5052;SDS011;2545;50.892;5.740;2024-02-21T05:18:28;18.10;;;7.77;;
5052;SDS011;2545;50.892;5.740;2024-02-21T05:20:53;21.13;;;8.30;;
5052;SDS011;2545;50.892;5.740;2024-02-21T05:23:19;15.17;;;7.80;;
5052;SDS011;2545;50.892;5.740;2024-02-21T05:25:44;18.63;;;7.77;;
5052;SDS011;2545;50.892;5.740;2024-02-21T05:28:09;11.23;;;7.10;;
5052;SDS011;2545;50.892;5.740;2024-02-21T05:30:36;18.90;;;7.10;;
5052;SDS011;2545;50.892;5.740;2024-02-21T05:33:05;13.43;;;7.20;;
5052;SDS011;2545;50.892;5.740;2024-02-21T05:35:31;19.40;;;7.63;;
5052;SDS011;2545;50.892;5.740;2024-02-21T05:37:56;20.67;;;6.60;;
5052;SDS011;2545;50.892;5.740;2024-02-21T05:40:22;20.37;;;6.77;;
5052;SDS011;2545;50.892;5.740;2024-02-21T05:42:47;16.37;;;6.90;;
5052;SDS011;2545;50.892;5.740;2024-02-21T05:45:16;13.50;;;6.80;;
5052;SDS011;2545;50.892;5.740;2024-02-21T05:47:41;14.23;;;7.50;;
5052;SDS011;2545;50.892;5.740;2024-02-21T05:50:07;12.93;;;6.27;;
5052;SDS011;2545;50.892;5.740;2024-02-21T05:52:32;27.60;;;7.70;;
5052;SDS011;2545;50.892;5.740;2024-02-21T05:54:57;22.20;;;7.93;;
5052;SDS011;2545;50.892;5.740;2024-02-21T05:57:23;18.33;;;7.10;;
5052;SDS011;2545;50.892;5.740;2024-02-21T05:59:48;18.30;;;6.77;;
5052;SDS011;2545;50.892;5.740;2024-02-21T06:02:13;19.60;;;5.83;;
5052;SDS011;2545;50.892;5.740;2024-02-21T06:04:39;15.03;;;5.77;;
5052;SDS011;2545;50.892;5.740;2024-02-21T06:07:04;21.00;;;6.30;;
5052;SDS011;2545;50.892;5.740;2024-02-21T06:09:30;19.33;;;5.77;;
5052;SDS011;2545;50.892;5.740;2024-02-21T06:11:55;23.27;;;5.33;;
5052;SDS011;2545;50.892;5.740;2024-02-21T06:14:20;12.23;;;6.10;;
5052;SDS011;2545;50.892;5.740;2024-02-21T06:16:46;17.63;;;5.70;;
5052;SDS011;2545;50.892;5.740;2024-02-21T06:19:11;15.27;;;6.07;;
5052;SDS011;2545;50.892;5.740;2024-02-21T06:21:36;18.87;;;5.87;;
5052;SDS011;2545;50.892;5.740;2024-02-21T06:24:02;15.73;;;7.93;;
5052;SDS011;2545;50.892;5.740;2024-02-21T06:26:28;28.33;;;7.00;;
5052;SDS011;2545;50.892;5.740;2024-02-21T06:28:53;22.90;;;7.70;;
5052;SDS011;2545;50.892;5.740;2024-02-21T06:31:21;20.57;;;6.97;;
5052;SDS011;2545;50.892;5.740;2024-02-21T06:33:46;17.17;;;6.80;;
5052;SDS011;2545;50.892;5.740;2024-02-21T06:36:12;18.33;;;7.20;;
5052;SDS011;2545;50.892;5.740;2024-02-21T06:38:37;14.50;;;7.03;;
5052;SDS011;2545;50.892;5.740;2024-02-21T06:41:03;17.50;;;6.77;;
5052;SDS011;2545;50.892;5.740;2024-02-21T06:43:29;10.20;;;6.50;;
5052;SDS011;2545;50.892;5.740;2024-02-21T06:45:55;17.23;;;7.57;;
5052;SDS011;2545;50.892;5.740;2024-02-21T06:48:21;18.53;;;7.77;;
5052;SDS011;2545;50.892;5.740;2024-02-21T06:50:47;20.97;;;7.07;;
5052;SDS011;2545;50.892;5.740;2024-02-21T06:53:13;27.33;;;6.33;;
5052;SDS011;2545;50.892;5.740;2024-02-21T06:55:38;21.67;;;7.53;;
5052;SDS011;2545;50.892;5.740;2024-02-21T06:58:05;24.73;;;6.73;;
5052;SDS011;2545;50.892;5.740;2024-02-21T07:00:30;18.57;;;5.83;;
5052;SDS011;2545;50.892;5.740;2024-02-21T07:02:55;12.63;;;5.57;;
5052;SDS011;2545;50.892;5.740;2024-02-21T07:05:21;13.47;;;5.20;;
5052;SDS011;2545;50.892;5.740;2024-02-21T07:07:47;17.63;;;5.67;;
5052;SDS011;2545;50.892;5.740;2024-02-21T07:10:12;16.57;;;5.70;;
5052;SDS011;2545;50.892;5.740;2024-02-21T07:12:37;17.93;;;5.53;;
5052;SDS011;2545;50.892;5.740;2024-02-21T07:15:07;13.00;;;5.60;;
5052;SDS011;2545;50.892;5.740;2024-02-21T07:17:32;12.23;;;5.83;;
5052;SDS011;2545;50.892;5.740;2024-02-21T07:19:57;14.50;;;6.10;;
5052;SDS011;2545;50.892;5.740;2024-02-21T07:22:24;25.57;;;5.90;;
5052;SDS011;2545;50.892;5.740;2024-02-21T07:24:50;13.17;;;5.63;;
5052;SDS011;2545;50.892;5.740;2024-02-21T07:27:22;14.17;;;5.33;;
5052;SDS011;2545;50.892;5.740;2024-02-21T07:29:47;18.97;;;6.67;;
5052;SDS011;2545;50.892;5.740;2024-02-21T07:32:14;15.43;;;5.63;;
5052;SDS011;2545;50.892;5.740;2024-02-21T07:34:39;16.67;;;6.00;;
5052;SDS011;2545;50.892;5.740;2024-02-21T07:37:04;12.07;;;5.47;;
5052;SDS011;2545;50.892;5.740;2024-02-21T07:39:30;16.30;;;6.10;;
5052;SDS011;2545;50.892;5.740;2024-02-21T07:41:55;14.20;;;6.53;;
5052;SDS011;2545;50.892;5.740;2024-02-21T07:44:20;10.00;;;5.10;;
5052;SDS011;2545;50.892;5.740;2024-02-21T07:46:46;12.23;;;5.03;;
5052;SDS011;2545;50.892;5.740;2024-02-21T07:49:12;17.20;;;5.43;;
5052;SDS011;2545;50.892;5.740;2024-02-21T07:51:37;10.57;;;5.03;;
5052;SDS011;2545;50.892;5.740;2024-02-21T07:54:02;16.50;;;4.87;;
5052;SDS011;2545;50.892;5.740;2024-02-21T07:56:29;19.30;;;5.83;;
5052;SDS011;2545;50.892;5.740;2024-02-21T07:58:54;12.97;;;5.10;;
5052;SDS011;2545;50.892;5.740;2024-02-21T08:01:20;14.20;;;4.63;;
5052;SDS011;2545;50.892;5.740;2024-02-21T08:03:48;16.37;;;5.00;;
5052;SDS011;2545;50.892;5.740;2024-02-21T08:06:13;17.03;;;6.30;;
5052;SDS011;2545;50.892;5.740;2024-02-21T08:08:39;14.20;;;4.87;;
5052;SDS011;2545;50.892;5.740;2024-02-21T08:11:04;10.20;;;5.23;;
5052;SDS011;2545;50.892;5.740;2024-02-21T08:13:30;15.77;;;5.73;;
5052;SDS011;2545;50.892;5.740;2024-02-21T08:15:56;14.07;;;6.63;;
5052;SDS011;2545;50.892;5.740;2024-02-21T08:18:22;12.33;;;5.30;;
5052;SDS011;2545;50.892;5.740;2024-02-21T08:20:48;12.70;;;5.30;;
5052;SDS011;2545;50.892;5.740;2024-02-21T08:23:18;10.40;;;5.20;;
5052;SDS011;2545;50.892;5.740;2024-02-21T08:25:44;11.23;;;5.03;;
5052;SDS011;2545;50.892;5.740;2024-02-21T08:28:09;13.60;;;5.00;;
5052;SDS011;2545;50.892;5.740;2024-02-21T08:30:35;11.63;;;4.90;;
5052;SDS011;2545;50.892;5.740;2024-02-21T08:33:00;14.17;;;4.73;;
5052;SDS011;2545;50.892;5.740;2024-02-21T08:35:27;13.40;;;4.70;;
5052;SDS011;2545;50.892;5.740;2024-02-21T08:37:52;21.37;;;5.43;;
5052;SDS011;2545;50.892;5.740;2024-02-21T08:40:17;20.40;;;5.33;;
5052;SDS011;2545;50.892;5.740;2024-02-21T08:42:45;11.20;;;5.27;;
5052;SDS011;2545;50.892;5.740;2024-02-21T08:45:11;14.00;;;5.20;;
5052;SDS011;2545;50.892;5.740;2024-02-21T08:47:38;11.37;;;5.23;;
5052;SDS011;2545;50.892;5.740;2024-02-21T08:50:06;16.60;;;4.97;;
5052;SDS011;2545;50.892;5.740;2024-02-21T08:52:32;13.20;;;4.50;;
5052;SDS011;2545;50.892;5.740;2024-02-21T08:54:58;9.97;;;3.67;;
5052;SDS011;2545;50.892;5.740;2024-02-21T08:57:24;13.83;;;4.80;;
5052;SDS011;2545;50.892;5.740;2024-02-21T08:59:50;16.60;;;5.07;;
5052;SDS011;2545;50.892;5.740;2024-02-21T09:02:15;16.40;;;4.60;;
5052;SDS011;2545;50.892;5.740;2024-02-21T09:04:43;16.03;;;3.63;;
5052;SDS011;2545;50.892;5.740;2024-02-21T09:07:10;9.10;;;3.97;;
5052;SDS011;2545;50.892;5.740;2024-02-21T09:09:36;24.50;;;4.43;;
5052;SDS011;2545;50.892;5.740;2024-02-21T09:12:03;11.40;;;4.50;;
5052;SDS011;2545;50.892;5.740;2024-02-21T09:14:32;32.87;;;5.50;;
5052;SDS011;2545;50.892;5.740;2024-02-21T09:16:58;6.77;;;3.90;;
5052;SDS011;2545;50.892;5.740;2024-02-21T09:19:23;24.03;;;4.77;;
5052;SDS011;2545;50.892;5.740;2024-02-21T09:21:48;12.10;;;4.67;;
5052;SDS011;2545;50.892;5.740;2024-02-21T09:24:14;14.37;;;4.50;;
5052;SDS011;2545;50.892;5.740;2024-02-21T09:26:39;10.70;;;5.40;;
5052;SDS011;2545;50.892;5.740;2024-02-21T09:29:05;7.17;;;4.30;;
5052;SDS011;2545;50.892;5.740;2024-02-21T09:31:32;12.70;;;4.77;;
5052;SDS011;2545;50.892;5.740;2024-02-21T09:33:57;13.30;;;4.30;;
5052;SDS011;2545;50.892;5.740;2024-02-21T09:36:22;6.93;;;4.50;;
5052;SDS011;2545;50.892;5.740;2024-02-21T09:38:48;18.57;;;5.40;;
5052;SDS011;2545;50.892;5.740;2024-02-21T09:41:17;15.43;;;4.60;;
5052;SDS011;2545;50.892;5.740;2024-02-21T09:43:48;8.03;;;4.20;;
5052;SDS011;2545;50.892;5.740;2024-02-21T09:46:16;13.73;;;4.80;;
5052;SDS011;2545;50.892;5.740;2024-02-21T09:51:38;13.30;;;5.03;;
5052;SDS011;2545;50.892;5.740;2024-02-21T09:54:07;9.67;;;4.30;;
5052;SDS011;2545;50.892;5.740;2024-02-21T09:56:32;22.03;;;5.53;;
5052;SDS011;2545;50.892;5.740;2024-02-21T09:58:58;21.60;;;5.40;;
5052;SDS011;2545;50.892;5.740;2024-02-21T10:01:24;20.73;;;4.57;;
5052;SDS011;2545;50.892;5.740;2024-02-21T10:03:49;12.83;;;4.67;;
5052;SDS011;2545;50.892;5.740;2024-02-21T10:06:15;12.00;;;4.37;;
5052;SDS011;2545;50.892;5.740;2024-02-21T10:08:40;22.77;;;4.83;;
5052;SDS011;2545;50.892;5.740;2024-02-21T10:11:05;11.47;;;4.90;;
5052;SDS011;2545;50.892;5.740;2024-02-21T10:13:33;15.10;;;4.97;;
5052;SDS011;2545;50.892;5.740;2024-02-21T10:16:03;12.80;;;4.07;;
5052;SDS011;2545;50.892;5.740;2024-02-21T10:18:28;10.67;;;4.90;;
5052;SDS011;2545;50.892;5.740;2024-02-21T10:21:02;15.63;;;4.93;;
5052;SDS011;2545;50.892;5.740;2024-02-21T10:23:44;17.67;;;4.83;;
5052;SDS011;2545;50.892;5.740;2024-02-21T10:26:11;16.40;;;4.40;;
5052;SDS011;2545;50.892;5.740;2024-02-21T10:28:37;14.30;;;4.30;;
5052;SDS011;2545;50.892;5.740;2024-02-21T10:31:11;14.53;;;4.50;;
5052;SDS011;2545;50.892;5.740;2024-02-21T10:33:53;9.10;;;4.40;;
5052;SDS011;2545;50.892;5.740;2024-02-21T10:36:23;12.17;;;4.10;;
5052;SDS011;2545;50.892;5.740;2024-02-21T10:38:49;15.90;;;5.40;;
5052;SDS011;2545;50.892;5.740;2024-02-21T10:41:15;7.30;;;5.10;;
5052;SDS011;2545;50.892;5.740;2024-02-21T10:43:42;9.67;;;4.80;;
5052;SDS011;2545;50.892;5.740;2024-02-21T10:46:14;15.60;;;5.87;;
5052;SDS011;2545;50.892;5.740;2024-02-21T10:48:43;9.43;;;4.43;;
5052;SDS011;2545;50.892;5.740;2024-02-21T10:56:22;13.33;;;5.00;;
5052;SDS011;2545;50.892;5.740;2024-02-21T10:58:52;8.63;;;4.40;;
5052;SDS011;2545;50.892;5.740;2024-02-21T11:01:18;7.57;;;4.07;;
5052;SDS011;2545;50.892;5.740;2024-02-21T11:03:44;11.07;;;5.13;;
5052;SDS011;2545;50.892;5.740;2024-02-21T11:06:12;9.00;;;4.80;;
5052;SDS011;2545;50.892;5.740;2024-02-21T11:08:38;14.87;;;5.40;;
5052;SDS011;2545;50.892;5.740;2024-02-21T11:11:04;8.40;;;4.30;;
5052;SDS011;2545;50.892;5.740;2024-02-21T11:13:37;10.83;;;4.90;;
5052;SDS011;2545;50.892;5.740;2024-02-21T11:16:09;16.30;;;5.70;;
5052;SDS011;2545;50.892;5.740;2024-02-21T11:18:38;7.77;;;4.70;;
5052;SDS011;2545;50.892;5.740;2024-02-21T11:21:04;7.73;;;4.17;;
5052;SDS011;2545;50.892;5.740;2024-02-21T11:23:32;12.07;;;4.93;;
5052;SDS011;2545;50.892;5.740;2024-02-21T11:26:07;15.93;;;5.20;;
5052;SDS011;2545;50.892;5.740;2024-02-21T11:28:33;11.17;;;4.07;;
5052;SDS011;2545;50.892;5.740;2024-02-21T11:31:08;11.13;;;4.77;;
5052;SDS011;2545;50.892;5.740;2024-02-21T11:33:34;12.80;;;4.80;;
5052;SDS011;2545;50.892;5.740;2024-02-21T11:36:01;13.23;;;4.97;;
5052;SDS011;2545;50.892;5.740;2024-02-21T11:38:26;13.63;;;4.50;;
5052;SDS011;2545;50.892;5.740;2024-02-21T11:40:52;11.93;;;4.07;;
5052;SDS011;2545;50.892;5.740;2024-02-21T11:43:17;8.60;;;4.87;;
5052;SDS011;2545;50.892;5.740;2024-02-21T11:45:42;10.70;;;4.70;;
5052;SDS011;2545;50.892;5.740;2024-02-21T11:48:08;10.33;;;5.07;;
5052;SDS011;2545;50.892;5.740;2024-02-21T11:50:36;8.07;;;4.37;;
5052;SDS011;2545;50.892;5.740;2024-02-21T11:53:01;7.80;;;4.20;;
5052;SDS011;2545;50.892;5.740;2024-02-21T11:55:27;6.47;;;4.17;;
5052;SDS011;2545;50.892;5.740;2024-02-21T11:57:53;9.40;;;4.20;;
5052;SDS011;2545;50.892;5.740;2024-02-21T12:00:18;7.67;;;4.23;;
5052;SDS011;2545;50.892;5.740;2024-02-21T12:02:49;22.33;;;5.10;;
5052;SDS011;2545;50.892;5.740;2024-02-21T12:05:15;7.70;;;4.50;;
5052;SDS011;2545;50.892;5.740;2024-02-21T12:07:41;11.30;;;5.27;;
5052;SDS011;2545;50.892;5.740;2024-02-21T12:10:09;14.90;;;4.87;;
5052;SDS011;2545;50.892;5.740;2024-02-21T12:12:36;12.03;;;4.20;;
5052;SDS011;2545;50.892;5.740;2024-02-21T12:15:03;11.83;;;5.20;;
5052;SDS011;2545;50.892;5.740;2024-02-21T12:17:33;11.67;;;5.60;;
5052;SDS011;2545;50.892;5.740;2024-02-21T12:20:00;14.83;;;4.43;;
5052;SDS011;2545;50.892;5.740;2024-02-21T12:22:26;11.60;;;4.43;;
5052;SDS011;2545;50.892;5.740;2024-02-21T12:24:53;10.50;;;5.20;;
5052;SDS011;2545;50.892;5.740;2024-02-21T12:27:18;9.00;;;4.70;;
5052;SDS011;2545;50.892;5.740;2024-02-21T12:29:44;9.10;;;4.73;;
5052;SDS011;2545;50.892;5.740;2024-02-21T12:32:09;7.50;;;4.47;;
5052;SDS011;2545;50.892;5.740;2024-02-21T12:34:35;14.00;;;4.83;;
5052;SDS011;2545;50.892;5.740;2024-02-21T12:37:01;8.87;;;4.57;;
5052;SDS011;2545;50.892;5.740;2024-02-21T12:39:28;10.33;;;4.90;;
5052;SDS011;2545;50.892;5.740;2024-02-21T12:41:53;11.70;;;4.33;;
5052;SDS011;2545;50.892;5.740;2024-02-21T12:44:21;8.13;;;3.43;;
5052;SDS011;2545;50.892;5.740;2024-02-21T12:46:49;6.30;;;3.80;;
5052;SDS011;2545;50.892;5.740;2024-02-21T12:49:17;9.20;;;4.10;;
5052;SDS011;2545;50.892;5.740;2024-02-21T12:51:43;16.23;;;4.87;;
5052;SDS011;2545;50.892;5.740;2024-02-21T12:54:11;10.10;;;4.20;;
5052;SDS011;2545;50.892;5.740;2024-02-21T12:56:37;8.17;;;5.03;;
5052;SDS011;2545;50.892;5.740;2024-02-21T12:59:02;5.57;;;3.53;;
5052;SDS011;2545;50.892;5.740;2024-02-21T13:01:29;13.00;;;4.07;;
5052;SDS011;2545;50.892;5.740;2024-02-21T13:03:54;10.33;;;4.87;;
5052;SDS011;2545;50.892;5.740;2024-02-21T13:06:20;6.40;;;3.57;;
5052;SDS011;2545;50.892;5.740;2024-02-21T13:08:46;6.70;;;3.80;;
5052;SDS011;2545;50.892;5.740;2024-02-21T13:11:12;7.50;;;3.17;;
5052;SDS011;2545;50.892;5.740;2024-02-21T13:13:38;12.67;;;3.60;;
5052;SDS011;2545;50.892;5.740;2024-02-21T13:16:03;6.07;;;3.50;;
5052;SDS011;2545;50.892;5.740;2024-02-21T13:18:29;11.77;;;3.53;;
5052;SDS011;2545;50.892;5.740;2024-02-21T13:20:54;11.63;;;3.83;;
5052;SDS011;2545;50.892;5.740;2024-02-21T13:23:20;10.93;;;3.80;;
5052;SDS011;2545;50.892;5.740;2024-02-21T13:25:48;6.03;;;3.50;;
5052;SDS011;2545;50.892;5.740;2024-02-21T13:28:14;16.33;;;3.43;;
5052;SDS011;2545;50.892;5.740;2024-02-21T13:30:41;27.90;;;11.90;;
5052;SDS011;2545;50.892;5.740;2024-02-21T13:33:06;58.30;;;24.83;;
5052;SDS011;2545;50.892;5.740;2024-02-21T13:35:32;103.10;;;43.97;;
5052;SDS011;2545;50.892;5.740;2024-02-21T13:37:57;102.50;;;41.87;;
5052;SDS011;2545;50.892;5.740;2024-02-21T13:40:23;68.20;;;30.00;;
5052;SDS011;2545;50.892;5.740;2024-02-21T13:42:50;41.03;;;17.17;;
5052;SDS011;2545;50.892;5.740;2024-02-21T13:45:16;43.70;;;18.20;;
5052;SDS011;2545;50.892;5.740;2024-02-21T13:47:41;52.87;;;23.53;;
5052;SDS011;2545;50.892;5.740;2024-02-21T13:50:07;59.60;;;26.47;;
5052;SDS011;2545;50.892;5.740;2024-02-21T13:52:42;52.80;;;23.77;;
5052;SDS011;2545;50.892;5.740;2024-02-21T13:55:08;35.50;;;15.00;;
5052;SDS011;2545;50.892;5.740;2024-02-21T13:57:34;32.77;;;17.60;;
5052;SDS011;2545;50.892;5.740;2024-02-21T14:00:03;26.87;;;12.60;;
5052;SDS011;2545;50.892;5.740;2024-02-21T14:02:29;26.27;;;12.90;;
5052;SDS011;2545;50.892;5.740;2024-02-21T14:04:55;17.60;;;9.60;;
5052;SDS011;2545;50.892;5.740;2024-02-21T14:07:21;17.03;;;6.50;;
5052;SDS011;2545;50.892;5.740;2024-02-21T14:09:46;11.20;;;6.27;;
5052;SDS011;2545;50.892;5.740;2024-02-21T14:12:12;10.50;;;5.93;;
5052;SDS011;2545;50.892;5.740;2024-02-21T14:14:37;12.20;;;6.90;;
5052;SDS011;2545;50.892;5.740;2024-02-21T14:17:03;13.27;;;6.00;;
5052;SDS011;2545;50.892;5.740;2024-02-21T14:19:29;14.50;;;7.53;;
5052;SDS011;2545;50.892;5.740;2024-02-21T14:21:55;10.97;;;5.37;;
5052;SDS011;2545;50.892;5.740;2024-02-21T14:24:23;13.77;;;4.47;;
5052;SDS011;2545;50.892;5.740;2024-02-21T14:26:48;9.20;;;3.27;;
5052;SDS011;2545;50.892;5.740;2024-02-21T14:29:14;7.13;;;3.10;;
5052;SDS011;2545;50.892;5.740;2024-02-21T14:31:39;14.93;;;4.30;;
5052;SDS011;2545;50.892;5.740;2024-02-21T14:34:04;6.80;;;3.80;;
5052;SDS011;2545;50.892;5.740;2024-02-21T14:36:30;8.23;;;4.47;;
5052;SDS011;2545;50.892;5.740;2024-02-21T14:38:55;11.13;;;4.80;;
5052;SDS011;2545;50.892;5.740;2024-02-21T14:41:21;8.17;;;5.07;;
5052;SDS011;2545;50.892;5.740;2024-02-21T14:43:46;9.67;;;4.93;;
5052;SDS011;2545;50.892;5.740;2024-02-21T14:46:12;13.83;;;6.37;;
5052;SDS011;2545;50.892;5.740;2024-02-21T14:48:38;9.80;;;5.43;;
5052;SDS011;2545;50.892;5.740;2024-02-21T14:51:04;11.40;;;6.50;;
5052;SDS011;2545;50.892;5.740;2024-02-21T14:53:29;17.40;;;6.10;;
5052;SDS011;2545;50.892;5.740;2024-02-21T14:55:55;7.27;;;4.70;;
5052;SDS011;2545;50.892;5.740;2024-02-21T14:58:22;7.73;;;4.23;;
5052;SDS011;2545;50.892;5.740;2024-02-21T15:00:49;9.33;;;3.13;;
5052;SDS011;2545;50.892;5.740;2024-02-21T15:03:15;12.83;;;3.10;;